Udo Maru — JM6522 — position and weather

sailwx.info

Track history (hours):
 
Tides and Currents Weather Stations Pressure Air Temp Water Temp Dewpoint Dewpoint Depression Visibility Wind Speed Wind Dir Waves Ship Positions

Udo Maru

Last reported at 2017-Nov-23 06:36 UTC. Time now 2017-Nov-24 00:09 UTC.
Position N 34°36' E 134°56'.

Length 87 m; draft 4.9 m.

Type: Cargo ship. MMSI: 431600499.

Date/timePositionNaut miles runAvg speedWind from/ knotsBaromVisibWave heightAir tempDewpointWater temp
2017-Nov-23 06:36N 34°36' E 134°56'110.7
2017-Nov-23 06:28N 34°37' E 134°58'4 9.1
2017-Nov-23 06:00N 34°37' E 135°03'510.5
2017-Nov-23 05:30N 34°36' E 135°09'612.0
2017-Nov-23 05:00N 34°36' E 135°16'611.7
2017-Nov-23 04:30N 34°36' E 135°23'3 0.5
2017-Nov-22 22:18N 34°36' E 135°27'1 3.4
2017-Nov-22 21:59N 34°35' E 135°26'3 7.0
2017-Nov-22 21:30N 34°35' E 135°22'0 0.8
2017-Nov-22 21:00N 34°36' E 135°21'5 9.2
2017-Nov-22 20:30N 34°35' E 135°16'612.7
2017-Nov-22 20:00N 34°34' E 135°08'714.6
2017-Nov-22 19:30N 34°37' E 134°60'  
2017-Nov-18 19:45N 34°34' E 134°49'311.6
2017-Nov-18 19:29N 34°35' E 134°52'711.6
2017-Nov-18 18:54N 34°38' E 134°60'4 9.1
2017-Nov-18 18:30N 34°36' E 135°04'511.0
2017-Nov-18 18:00N 34°36' E 135°10'612.2
2017-Nov-18 17:30N 34°36' E 135°18'611.9
2017-Nov-18 17:00N 34°36' E 135°25'2 0.1
2017-Nov-17 22:36N 34°36' E 135°27'0 0.7
2017-Nov-17 22:28N 34°35' E 135°27'3 6.4
2017-Nov-17 22:00N 34°36' E 135°24'510.4
2017-Nov-17 21:30N 34°33' E 135°18'511.2
2017-Nov-17 21:00N 34°30' E 135°14'611.2
2017-Nov-17 20:28N 34°25' E 135°09'611.6
2017-Nov-17 19:55N 34°20' E 135°05'510.9
2017-Nov-17 19:29N 34°15' E 135°04'3 5.9
2017-Nov-17 19:01N 34°15' E 135°07'0 0.0
2017-Nov-17 18:30N 34°15' E 135°07'0 0.0
2017-Nov-17 18:00N 34°15' E 135°07'0 0.0
2017-Nov-17 17:31N 34°15' E 135°07'0 0.0
2017-Nov-17 17:00N 34°15' E 135°07'0 0.0
2017-Nov-17 16:31N 34°15' E 135°07'0 0.0
2017-Nov-17 16:01N 34°15' E 135°07'0 0.0
2017-Nov-17 15:31N 34°15' E 135°07'0 0.0
2017-Nov-17 15:01N 34°15' E 135°07'0 0.0
2017-Nov-17 14:30N 34°15' E 135°07'0 0.1
2017-Nov-17 14:01N 34°15' E 135°07'0 0.0
2017-Nov-17 13:30N 34°15' E 135°07'0 0.0
2017-Nov-17 13:00N 34°15' E 135°07'0 0.0
2017-Nov-17 12:31N 34°15' E 135°07'0 0.0
2017-Nov-17 12:01N 34°15' E 135°07'0 0.0
2017-Nov-17 11:31N 34°15' E 135°07'0 0.0
2017-Nov-17 11:01N 34°15' E 135°07'0 0.0
2017-Nov-17 10:30N 34°15' E 135°07'0 0.7
2017-Nov-17 10:01N 34°14' E 135°07'1 2.3
2017-Nov-17 09:30N 34°15' E 135°06'0 0.0
2017-Nov-17 08:57N 34°15' E 135°06'0 0.0
2017-Nov-17 08:30N 34°15' E 135°06'0 0.0
2017-Nov-17 08:00N 34°15' E 135°06'0 0.1
2017-Nov-17 07:30N 34°15' E 135°06'0 0.0
2017-Nov-17 07:00N 34°15' E 135°06'0 0.1
2017-Nov-17 06:30N 34°15' E 135°06'0 0.0
2017-Nov-17 06:00N 34°15' E 135°06'0 0.0
2017-Nov-17 05:30N 34°15' E 135°06'0 0.0
2017-Nov-17 05:00N 34°15' E 135°06'0 0.0
2017-Nov-17 04:30N 34°15' E 135°06'0 0.0
2017-Nov-17 04:00N 34°15' E 135°06'0 0.0
2017-Nov-17 03:30N 34°15' E 135°06'0 0.0
2017-Nov-17 03:00N 34°15' E 135°06'0 0.0
2017-Nov-17 02:30N 34°15' E 135°06'0 0.0
2017-Nov-17 02:00N 34°15' E 135°06'0 0.2
2017-Nov-17 01:30N 34°15' E 135°06'0 0.0
2017-Nov-17 01:00N 34°15' E 135°06'0 0.0
2017-Nov-17 00:26N 34°15' E 135°06'0 0.0
2017-Nov-17 00:00N 34°15' E 135°06'0 0.0
2017-Nov-16 23:30N 34°15' E 135°06'1 1.9
2017-Nov-16 23:00N 34°14' E 135°05'611.8
2017-Nov-16 22:30N 34°08' E 135°04'612.7
2017-Nov-16 22:00N 34°02' E 135°02'209 8.5
2017-Nov-15 21:26N 34°48' E 139°10'1511.5
2017-Nov-15 20:09N 34°59' E 139°22'211.0
2017-Nov-15 19:58N 34°60' E 139°24'511.2
2017-Nov-15 19:29N 35°02' E 139°30'511.2
2017-Nov-15 19:00N 35°04' E 139°36'612.1
2017-Nov-15 18:30N 35°07' E 139°43'612.0
2017-Nov-15 18:00N 35°12' E 139°46'611.4
2017-Nov-15 17:30N 35°18' E 139°44'611.7
2017-Nov-15 17:00N 35°24' E 139°43'4 8.8
2017-Nov-15 16:30N 35°24' E 139°48'4 7.2
2017-Nov-15 16:00N 35°22' E 139°51'0 0.0
2017-Nov-15 15:28N 35°22' E 139°51'0 0.0
2017-Nov-15 14:58N 35°22' E 139°51'0 0.0
2017-Nov-15 14:28N 35°22' E 139°51'0 0.0
2017-Nov-15 13:58N 35°22' E 139°51'0 0.0
2017-Nov-15 13:28N 35°22' E 139°51'0 0.0
2017-Nov-15 12:58N 35°22' E 139°51'0 0.0
2017-Nov-15 12:28N 35°22' E 139°51'0 0.0
2017-Nov-15 11:58N 35°22' E 139°51'0 0.0
2017-Nov-15 11:28N 35°22' E 139°51'0 0.0
2017-Nov-15 10:58N 35°22' E 139°51'0 0.0
2017-Nov-15 10:28N 35°22' E 139°51'0 0.0
2017-Nov-15 09:58N 35°22' E 139°51'0 0.0
2017-Nov-15 09:28N 35°22' E 139°51'0 0.0
2017-Nov-15 08:55N 35°22' E 139°51'0 0.0
2017-Nov-15 08:28N 35°22' E 139°51'0 0.1
2017-Nov-15 08:01N 35°21' E 139°51'2 3.4
2017-Nov-15 07:31N 35°22' E 139°49'0 0.3
2017-Nov-15 07:00N 35°22' E 139°49'0 0.0
2017-Nov-15 06:28N 35°22' E 139°49'0 0.0
2017-Nov-15 05:57N 35°22' E 139°49'0 0.0
2017-Nov-15 05:24N 35°22' E 139°49'0 0.0
2017-Nov-15 05:00N 35°22' E 139°49'3 5.5
2017-Nov-15 04:31N 35°22' E 139°46'510.0
2017-Nov-15 04:00N 35°17' E 139°45'510.6
2017-Nov-15 03:30N 35°12' E 139°47'510.6
2017-Nov-15 03:00N 35°07' E 139°46'510.4
2017-Nov-15 02:30N 35°02' E 139°44'810.8
2017-Nov-15 01:47N 34°54' E 139°47'  
Track history (hours):
 
Tides and Currents Weather Stations Pressure Air Temp Water Temp Dewpoint Dewpoint Depression Visibility Wind Speed Wind Dir Waves Ship Positions

Udo Maru

Last reported at 2017-Nov-23 06:36 UTC. Time now 2017-Nov-24 00:09 UTC.
Position N 34°36' E 134°56'.

Length 87 m; draft 4.9 m.

Type: Cargo ship. MMSI: 431600499.

Date/timePositionNaut miles runAvg speedWind from/ knotsBaromVisibWave heightAir tempDewpointWater temp
2017-Nov-23 06:36N 34°36' E 134°56'110.7
2017-Nov-23 06:28N 34°37' E 134°58'4 9.1
2017-Nov-23 06:00N 34°37' E 135°03'510.5
2017-Nov-23 05:30N 34°36' E 135°09'612.0
2017-Nov-23 05:00N 34°36' E 135°16'611.7
2017-Nov-23 04:30N 34°36' E 135°23'3 0.5
2017-Nov-22 22:18N 34°36' E 135°27'1 3.4
2017-Nov-22 21:59N 34°35' E 135°26'3 7.0
2017-Nov-22 21:30N 34°35' E 135°22'0 0.8
2017-Nov-22 21:00N 34°36' E 135°21'5 9.2
2017-Nov-22 20:30N 34°35' E 135°16'612.7
2017-Nov-22 20:00N 34°34' E 135°08'714.6
2017-Nov-22 19:30N 34°37' E 134°60'  
2017-Nov-18 19:45N 34°34' E 134°49'311.6
2017-Nov-18 19:29N 34°35' E 134°52'711.6
2017-Nov-18 18:54N 34°38' E 134°60'4 9.1
2017-Nov-18 18:30N 34°36' E 135°04'511.0
2017-Nov-18 18:00N 34°36' E 135°10'612.2
2017-Nov-18 17:30N 34°36' E 135°18'611.9
2017-Nov-18 17:00N 34°36' E 135°25'2 0.1
2017-Nov-17 22:36N 34°36' E 135°27'0 0.7
2017-Nov-17 22:28N 34°35' E 135°27'3 6.4
2017-Nov-17 22:00N 34°36' E 135°24'510.4
2017-Nov-17 21:30N 34°33' E 135°18'511.2
2017-Nov-17 21:00N 34°30' E 135°14'611.2
2017-Nov-17 20:28N 34°25' E 135°09'611.6
2017-Nov-17 19:55N 34°20' E 135°05'510.9
2017-Nov-17 19:29N 34°15' E 135°04'3 5.9
2017-Nov-17 19:01N 34°15' E 135°07'0 0.0
2017-Nov-17 18:30N 34°15' E 135°07'0 0.0
2017-Nov-17 18:00N 34°15' E 135°07'0 0.0
2017-Nov-17 17:31N 34°15' E 135°07'0 0.0
2017-Nov-17 17:00N 34°15' E 135°07'0 0.0
2017-Nov-17 16:31N 34°15' E 135°07'0 0.0
2017-Nov-17 16:01N 34°15' E 135°07'0 0.0
2017-Nov-17 15:31N 34°15' E 135°07'0 0.0
2017-Nov-17 15:01N 34°15' E 135°07'0 0.0
2017-Nov-17 14:30N 34°15' E 135°07'0 0.1
2017-Nov-17 14:01N 34°15' E 135°07'0 0.0
2017-Nov-17 13:30N 34°15' E 135°07'0 0.0
2017-Nov-17 13:00N 34°15' E 135°07'0 0.0
2017-Nov-17 12:31N 34°15' E 135°07'0 0.0
2017-Nov-17 12:01N 34°15' E 135°07'0 0.0
2017-Nov-17 11:31N 34°15' E 135°07'0 0.0
2017-Nov-17 11:01N 34°15' E 135°07'0 0.0
2017-Nov-17 10:30N 34°15' E 135°07'0 0.7
2017-Nov-17 10:01N 34°14' E 135°07'1 2.3
2017-Nov-17 09:30N 34°15' E 135°06'0 0.0
2017-Nov-17 08:57N 34°15' E 135°06'0 0.0
2017-Nov-17 08:30N 34°15' E 135°06'0 0.0
2017-Nov-17 08:00N 34°15' E 135°06'0 0.1
2017-Nov-17 07:30N 34°15' E 135°06'0 0.0
2017-Nov-17 07:00N 34°15' E 135°06'0 0.1
2017-Nov-17 06:30N 34°15' E 135°06'0 0.0
2017-Nov-17 06:00N 34°15' E 135°06'0 0.0
2017-Nov-17 05:30N 34°15' E 135°06'0 0.0
2017-Nov-17 05:00N 34°15' E 135°06'0 0.0
2017-Nov-17 04:30N 34°15' E 135°06'0 0.0
2017-Nov-17 04:00N 34°15' E 135°06'0 0.0
2017-Nov-17 03:30N 34°15' E 135°06'0 0.0
2017-Nov-17 03:00N 34°15' E 135°06'0 0.0
2017-Nov-17 02:30N 34°15' E 135°06'0 0.0
2017-Nov-17 02:00N 34°15' E 135°06'0 0.2
2017-Nov-17 01:30N 34°15' E 135°06'0 0.0
2017-Nov-17 01:00N 34°15' E 135°06'0 0.0
2017-Nov-17 00:26N 34°15' E 135°06'0 0.0
2017-Nov-17 00:00N 34°15' E 135°06'0 0.0
2017-Nov-16 23:30N 34°15' E 135°06'1 1.9
2017-Nov-16 23:00N 34°14' E 135°05'611.8
2017-Nov-16 22:30N 34°08' E 135°04'612.7
2017-Nov-16 22:00N 34°02' E 135°02'209 8.5
2017-Nov-15 21:26N 34°48' E 139°10'1511.5
2017-Nov-15 20:09N 34°59' E 139°22'211.0
2017-Nov-15 19:58N 34°60' E 139°24'511.2
2017-Nov-15 19:29N 35°02' E 139°30'511.2
2017-Nov-15 19:00N 35°04' E 139°36'612.1
2017-Nov-15 18:30N 35°07' E 139°43'612.0
2017-Nov-15 18:00N 35°12' E 139°46'611.4
2017-Nov-15 17:30N 35°18' E 139°44'611.7
2017-Nov-15 17:00N 35°24' E 139°43'4 8.8
2017-Nov-15 16:30N 35°24' E 139°48'4 7.2
2017-Nov-15 16:00N 35°22' E 139°51'0 0.0
2017-Nov-15 15:28N 35°22' E 139°51'0 0.0
2017-Nov-15 14:58N 35°22' E 139°51'0 0.0
2017-Nov-15 14:28N 35°22' E 139°51'0 0.0
2017-Nov-15 13:58N 35°22' E 139°51'0 0.0
2017-Nov-15 13:28N 35°22' E 139°51'0 0.0
2017-Nov-15 12:58N 35°22' E 139°51'0 0.0
2017-Nov-15 12:28N 35°22' E 139°51'0 0.0
2017-Nov-15 11:58N 35°22' E 139°51'0 0.0
2017-Nov-15 11:28N 35°22' E 139°51'0 0.0
2017-Nov-15 10:58N 35°22' E 139°51'0 0.0
2017-Nov-15 10:28N 35°22' E 139°51'0 0.0
2017-Nov-15 09:58N 35°22' E 139°51'0 0.0
2017-Nov-15 09:28N 35°22' E 139°51'0 0.0
2017-Nov-15 08:55N 35°22' E 139°51'0 0.0
2017-Nov-15 08:28N 35°22' E 139°51'0 0.1
2017-Nov-15 08:01N 35°21' E 139°51'2 3.4
2017-Nov-15 07:31N 35°22' E 139°49'0 0.3
2017-Nov-15 07:00N 35°22' E 139°49'0 0.0
2017-Nov-15 06:28N 35°22' E 139°49'0 0.0
2017-Nov-15 05:57N 35°22' E 139°49'0 0.0
2017-Nov-15 05:24N 35°22' E 139°49'0 0.0
2017-Nov-15 05:00N 35°22' E 139°49'3 5.5
2017-Nov-15 04:31N 35°22' E 139°46'510.0
2017-Nov-15 04:00N 35°17' E 139°45'510.6
2017-Nov-15 03:30N 35°12' E 139°47'510.6
2017-Nov-15 03:00N 35°07' E 139°46'510.4
2017-Nov-15 02:30N 35°02' E 139°44'810.8
2017-Nov-15 01:47N 34°54' E 139°47'  

Dump ship's entire track history